createdAt,value
2019-03-16T00:04:55.437Z,6.1
2019-03-16T00:15:12.420Z,6.1
2019-03-16T00:26:09.954Z,6.1
2019-03-16T00:37:00.184Z,6.1
2019-03-16T00:48:01.893Z,6.2
2019-03-16T00:58:49.657Z,6.2
2019-03-16T01:09:53.979Z,6.3
2019-03-16T01:20:48.214Z,6.3
2019-03-16T01:32:43.252Z,6.3
2019-03-16T01:43:01.545Z,6.3
2019-03-16T01:53:20.568Z,6.3
2019-03-16T02:04:11.879Z,6.2
2019-03-16T02:15:02.378Z,6.2
2019-03-16T02:36:05.307Z,6.2
2019-03-16T02:46:20.152Z,6.2
2019-03-16T02:57:05.594Z,6.2
2019-03-16T03:07:32.217Z,6.2
2019-03-16T03:17:47.147Z,6.2
2019-03-16T03:28:35.856Z,6.2
2019-03-16T03:39:25.832Z,6.2
2019-03-16T03:53:22.793Z,6.2
2019-03-16T04:05:04.596Z,6.4
2019-03-16T04:17:01.634Z,6.3
2019-03-16T04:28:38.302Z,6.3
2019-03-16T04:38:51.614Z,6.3
2019-03-16T04:49:41.899Z,6.3
2019-03-16T05:00:50.743Z,6.3
2019-03-16T05:11:34.777Z,6.2
2019-03-16T05:22:49.106Z,6.2
2019-03-16T05:33:57.000Z,6.2
2019-03-16T05:44:42.494Z,6.1
2019-03-16T05:55:45.853Z,6.1
2019-03-16T06:07:25.784Z,6.1
2019-03-16T06:18:50.519Z,6.1
2019-03-16T06:30:50.283Z,6.0
2019-03-16T06:41:11.612Z,6.0
2019-03-16T06:52:20.171Z,6.0
2019-03-16T07:02:41.453Z,6.0
2019-03-16T07:12:58.953Z,6.1
2019-03-16T07:23:31.937Z,6.1
2019-03-16T07:34:11.431Z,6.1
2019-03-16T07:45:07.255Z,6.1
2019-03-16T07:55:46.267Z,6.1
2019-03-16T08:05:59.968Z,6.1
2019-03-16T08:16:32.974Z,6.2
2019-03-16T08:28:58.834Z,6.4
2019-03-16T08:39:55.525Z,6.5
2019-03-16T08:51:05.151Z,6.6
2019-03-16T09:01:26.072Z,6.6
2019-03-16T09:11:46.263Z,6.8
2019-03-16T09:22:14.154Z,6.9
2019-03-16T09:33:06.549Z,7.3
2019-03-16T09:45:09.229Z,7.6
2019-03-16T09:56:04.135Z,8.0
2019-03-16T10:06:55.352Z,8.3
2019-03-16T10:17:44.777Z,8.6
2019-03-16T10:28:43.179Z,8.8
2019-03-16T10:38:56.778Z,8.8
2019-03-16T10:49:47.159Z,9.1
2019-03-16T11:00:37.358Z,9.2
2019-03-16T11:11:30.779Z,9.3
2019-03-16T11:24:12.820Z,9.3
2019-03-16T11:35:02.329Z,9.4
2019-03-16T11:46:03.788Z,9.5
2019-03-16T11:56:52.271Z,9.7
2019-03-16T12:07:41.741Z,9.8
2019-03-16T12:18:31.886Z,9.9
2019-03-16T12:29:33.524Z,10.0
2019-03-16T12:40:11.320Z,10.0
2019-03-16T12:51:03.114Z,10.1
2019-03-16T13:01:31.132Z,10.1
2019-03-16T13:11:51.714Z,10.2
2019-03-16T13:22:44.095Z,10.4
2019-03-16T13:36:40.627Z,10.5
2019-03-16T13:46:56.865Z,10.6
2019-03-16T13:58:03.624Z,10.6
2019-03-16T14:09:17.206Z,10.6
2019-03-16T14:20:10.788Z,10.5
2019-03-16T14:30:40.898Z,10.6
2019-03-16T14:41:30.776Z,10.6
2019-03-16T14:52:24.299Z,10.6
2019-03-16T15:02:45.697Z,10.6
2019-03-16T15:13:06.773Z,10.6
2019-03-16T15:24:04.790Z,10.6
2019-03-16T15:35:09.385Z,10.7
2019-03-16T15:45:27.056Z,10.7
2019-03-16T15:56:46.463Z,10.8
2019-03-16T16:07:02.740Z,10.8
2019-03-16T16:17:21.446Z,10.7
2019-03-16T16:28:24.899Z,10.7
2019-03-16T16:39:14.608Z,10.7
2019-03-16T16:50:07.224Z,10.6
2019-03-16T17:00:28.626Z,10.6
2019-03-16T17:11:25.930Z,10.5
2019-03-16T17:21:34.607Z,10.5
2019-03-16T17:31:50.385Z,10.4
2019-03-16T17:42:16.827Z,10.4
2019-03-16T17:52:51.247Z,10.3
2019-03-16T18:03:02.542Z,10.3
2019-03-16T18:26:51.536Z,10.1
2019-03-16T18:38:02.172Z,10.1
2019-03-16T18:48:48.222Z,10.1
2019-03-16T19:00:03.221Z,10.1
2019-03-16T19:11:09.089Z,10.1
2019-03-16T19:24:15.510Z,10.1
2019-03-16T19:37:09.586Z,10.1
2019-03-16T20:04:36.059Z,10.0
2019-03-16T20:28:56.939Z,10.0
2019-03-16T20:39:47.444Z,10.0
2019-03-16T20:55:52.294Z,10.2
2019-03-16T21:06:18.211Z,10.2
2019-03-16T21:17:45.325Z,10.1
2019-03-16T21:28:36.328Z,10.1
2019-03-16T21:39:41.482Z,10.1
2019-03-16T21:50:29.315Z,10.1
2019-03-16T22:00:46.269Z,10.1
2019-03-16T22:11:39.738Z,10.1
2019-03-16T22:22:37.332Z,10.1
2019-03-16T22:33:24.514Z,10.1
2019-03-16T22:43:44.311Z,10.1
2019-03-16T22:54:14.553Z,10.1
2019-03-16T23:05:20.593Z,10.2
2019-03-16T23:16:09.446Z,10.2
2019-03-16T23:26:25.326Z,10.2
2019-03-16T23:36:56.404Z,10.2
2019-03-16T23:47:46.845Z,10.2
2019-03-16T23:58:19.852Z,10.2
